Terminal Aerodrome Forecast
Issued by NWS

Home | Current Version | Previous Version | Text Only | Print | Product List | Glossary On
Versions: 1 2 3 4 5 6 7 8 9 10 11 12 13 14
000
FTUS46 KSEW 281740
TAFBLI
TAF
KBLI 281740Z 2818/2918 19008KT P6SM SCT060
     FM290600 17006KT P6SM SCT020 BKN050
     FM291200 17006KT P6SM VCSH SCT012 BKN020 OVC035=

USA.gov is the U.S. government's official web portal to all federal, state and local government web resources and services.